Time;durP1;ratioP1;P1;durP2;ratioP2;P2;SDS_P1;SDS_P2;PMS_P1;PMS_P2;Temp;Humidity;BMP_temperature;BMP_pressure;BME280_temperature;BME280_humidity;BME280_pressure;Samples;Min_cycle;Max_cycle;Signal;HPM_P1;HPM_P2
2023/10/12 00:02:00;;;;;;;7.63;3.20;;;;;;;15.89;67.25;98697.03;4870767;29;20068;-83
2023/10/12 00:04:50;;;;;;;9.35;2.53;;;;;;;15.65;67.92;98702.41;4874782;29;20051;-82
2023/10/12 00:07:34;;;;;;;5.00;2.20;;;;;;;15.55;67.55;98709.13;4877453;29;20169;-83
2023/10/12 00:13:03;;;;;;;5.18;1.92;;;;;;;15.46;66.63;98705.25;4871640;29;20044;-82
2023/10/12 00:15:47;;;;;;;6.93;2.08;;;;;;;15.39;66.95;98708.00;4874984;29;20407;-83
2023/10/12 00:18:34;;;;;;;8.27;2.05;;;;;;;15.44;66.54;98690.66;4877977;29;20502;-83
2023/10/12 00:21:25;;;;;;;7.85;2.00;;;;;;;15.35;65.97;98709.53;4876499;29;20083;-83
2023/10/12 00:24:13;;;;;;;10.25;1.90;;;;;;;15.28;66.10;98709.66;4874367;29;20056;-82
2023/10/12 00:26:58;;;;;;;6.45;1.75;;;;;;;15.31;66.28;98715.50;4876641;29;20047;-83
2023/10/12 00:29:42;;;;;;;6.03;2.35;;;;;;;15.29;65.73;98721.03;4877779;29;20048;-83
2023/10/12 00:32:26;;;;;;;5.85;1.80;;;;;;;15.31;66.02;98718.16;4873053;29;20044;-83
2023/10/12 00:35:19;;;;;;;7.53;1.85;;;;;;;15.11;66.15;98699.00;4876650;29;20052;-83
2023/10/12 00:38:17;;;;;;;3.92;1.67;;;;;;;15.15;65.93;98694.06;4876685;29;20052;-82
2023/10/12 00:41:05;;;;;;;6.55;2.22;;;;;;;15.12;66.17;98699.78;4878049;29;20064;-82
2023/10/12 00:44:08;;;;;;;4.05;1.33;;;;;;;14.98;67.07;98704.53;4877258;29;20044;-84
2023/10/12 00:46:59;;;;;;;4.93;1.67;;;;;;;15.06;66.94;98713.94;4874876;29;20071;-82
2023/10/12 00:49:48;;;;;;;9.20;1.83;;;;;;;15.14;66.71;98730.25;4874872;29;20089;-83
2023/10/12 00:52:55;;;;;;;14.07;1.98;;;;;;;15.07;66.98;98729.59;4874852;29;20104;-82
2023/10/12 00:55:39;;;;;;;6.13;1.67;;;;;;;15.09;67.11;98742.56;4873527;29;20092;-82
2023/10/12 00:58:23;;;;;;;5.35;1.63;;;;;;;15.26;66.57;98743.44;4877259;29;20571;-83
2023/10/12 01:01:08;;;;;;;6.03;1.75;;;;;;;15.32;66.27;98741.72;4877121;29;20522;-83
2023/10/12 01:03:53;;;;;;;5.63;1.50;;;;;;;15.20;66.50;98728.53;4876147;29;20187;-83
2023/10/12 01:06:38;;;;;;;6.75;1.58;;;;;;;15.13;66.61;98733.13;4876260;29;20055;-84
2023/10/12 01:09:22;;;;;;;8.88;1.55;;;;;;;15.08;66.71;98738.31;4875995;29;20101;-82
2023/10/12 01:12:13;;;;;;;4.55;1.83;;;;;;;14.99;66.70;98746.59;4874958;29;20068;-82
2023/10/12 01:14:57;;;;;;;4.28;1.42;;;;;;;14.93;66.91;98744.84;4876277;29;20047;-83
2023/10/12 01:17:41;;;;;;;4.63;1.50;;;;;;;15.01;66.39;98735.78;4876858;29;20124;-81
2023/10/12 01:20:26;;;;;;;4.75;2.10;;;;;;;14.93;66.89;98742.22;4875844;29;20538;-84
2023/10/12 01:23:10;;;;;;;14.70;2.30;;;;;;;14.97;66.92;98735.47;4875824;29;20048;-82
2023/10/12 01:26:03;;;;;;;6.20;1.70;;;;;;;14.95;67.08;98726.97;4876120;29;20156;-82
2023/10/12 01:28:49;;;;;;;11.30;1.70;;;;;;;15.05;66.81;98721.09;4874398;29;20071;-83
2023/10/12 01:31:36;;;;;;;10.30;2.42;;;;;;;15.04;66.80;98722.13;4874976;29;20079;-82
2023/10/12 01:34:24;;;;;;;6.75;1.98;;;;;;;15.08;66.71;98731.19;4875811;29;20124;-83
2023/10/12 01:37:26;;;;;;;6.63;2.25;;;;;;;15.07;66.73;98734.88;4876393;29;20104;-84
2023/10/12 01:40:14;;;;;;;6.60;1.75;;;;;;;15.08;66.72;98723.25;4870837;29;20044;-83
2023/10/12 01:42:58;;;;;;;6.75;2.00;;;;;;;15.11;66.74;98729.91;4876526;29;20459;-82
2023/10/12 01:45:53;;;;;;;4.72;1.88;;;;;;;15.08;66.91;98736.47;4877355;29;20044;-84
2023/10/12 01:48:37;;;;;;;6.65;1.67;;;;;;;15.09;66.61;98737.25;4872971;29;20060;-83
2023/10/12 01:51:24;;;;;;;11.10;2.13;;;;;;;15.12;66.64;98752.66;4878705;29;20060;-83
2023/10/12 01:54:14;;;;;;;8.55;1.90;;;;;;;14.98;67.00;98737.06;4877579;29;20494;-83
2023/10/12 01:56:57;;;;;;;7.55;1.90;;;;;;;14.89;67.01;98733.13;4878685;29;20404;-83
2023/10/12 01:59:41;;;;;;;7.30;1.90;;;;;;;15.05;67.28;98736.13;4878345;29;20173;-83
2023/10/12 02:02:26;;;;;;;4.43;1.52;;;;;;;15.09;67.02;98743.38;4879265;29;20052;-83
2023/10/12 02:05:10;;;;;;;9.27;1.88;;;;;;;14.99;67.04;98736.03;4877145;29;20093;-83
2023/10/12 02:07:56;;;;;;;7.38;1.92;;;;;;;15.07;67.44;98749.91;4877542;29;20032;-83
2023/10/12 02:10:54;;;;;;;9.82;1.88;;;;;;;15.02;67.53;98752.44;4878242;29;20093;-82
2023/10/12 02:13:41;;;;;;;13.70;2.22;;;;;;;14.83;67.76;98728.78;4878820;29;20624;-83
2023/10/12 02:16:31;;;;;;;7.68;1.60;;;;;;;14.98;67.35;98737.06;4876629;29;20064;-83
2023/10/12 02:19:30;;;;;;;5.72;1.55;;;;;;;15.03;67.01;98731.06;4875544;29;20124;-82
2023/10/12 02:22:24;;;;;;;8.00;1.70;;;;;;;14.95;67.06;98734.88;4878833;29;20132;-82
2023/10/12 02:25:18;;;;;;;4.80;1.55;;;;;;;14.86;67.75;98738.88;4879308;29;20057;-82
2023/10/12 02:28:04;;;;;;;5.32;1.50;;;;;;;14.74;68.69;98738.06;4878377;29;20462;-82
2023/10/12 02:30:55;;;;;;;5.65;1.80;;;;;;;14.70;68.78;98730.59;4877919;29;20052;-82
2023/10/12 02:33:39;;;;;;;3.85;1.30;;;;;;;14.59;68.70;98731.41;4877656;29;20125;-82
2023/10/12 02:36:26;;;;;;;6.88;1.77;;;;;;;14.64;69.05;98736.78;4879395;29;20101;-82
2023/10/12 02:39:10;;;;;;;11.07;3.03;;;;;;;14.65;68.93;98722.53;4879600;29;20067;-81
2023/10/12 02:42:56;;;;;;;5.50;1.48;;;;;;;14.74;68.50;98735.44;4879008;29;20079;-83
2023/10/12 02:45:16;;;;;;;7.55;2.00;;;;;;;14.59;69.09;98752.53;4878484;29;20051;-84
2023/10/12 02:48:05;;;;;;;7.65;2.05;;;;;;;14.73;68.88;98739.09;4878155;29;20047;-84
2023/10/12 02:50:58;;;;;;;5.15;1.75;;;;;;;14.69;68.86;98731.63;4877124;29;20048;-82
2023/10/12 02:53:42;;;;;;;9.27;1.87;;;;;;;14.92;68.24;98726.59;4873791;29;20048;-82
2023/10/12 02:56:26;;;;;;;7.72;1.77;;;;;;;14.97;67.17;98740.75;4876583;29;20777;-82
2023/10/12 02:59:13;;;;;;;9.95;2.00;;;;;;;14.90;67.19;98747.97;4879373;29;20100;-84
2023/10/12 03:02:17;;;;;;;9.05;2.40;;;;;;;14.84;66.87;98757.63;4875139;29;20055;-83
2023/10/12 03:05:06;;;;;;;4.35;1.65;;;;;;;14.96;67.53;98751.53;4876884;29;20064;-83
2023/10/12 03:07:53;;;;;;;6.38;1.63;;;;;;;14.96;67.69;98755.00;4877922;29;20181;-83
2023/10/12 03:10:45;;;;;;;5.85;1.50;;;;;;;14.96;67.55;98747.06;4876990;29;20101;-83
2023/10/12 03:13:35;;;;;;;3.83;1.30;;;;;;;15.11;66.10;98751.06;4877034;29;20092;-84
2023/10/12 03:19:22;;;;;;;5.75;2.10;;;;;;;15.19;65.28;98757.84;4878913;29;20052;-82
2023/10/12 03:22:23;;;;;;;11.88;1.50;;;;;;;15.24;64.84;98766.69;4877241;29;20179;-83
2023/10/12 03:25:19;;;;;;;5.75;2.13;;;;;;;15.34;64.59;98767.94;4877457;29;20120;-83
2023/10/12 03:28:12;;;;;;;5.57;1.85;;;;;;;15.19;64.79;98758.66;4877069;29;20510;-83
2023/10/12 03:31:15;;;;;;;9.38;1.70;;;;;;;15.36;64.25;98761.38;4878864;29;20052;-83
2023/10/12 03:34:00;;;;;;;9.93;2.10;;;;;;;15.47;63.94;98759.75;4879327;29;20044;-83
2023/10/12 03:36:48;;;;;;;6.50;1.50;;;;;;;15.47;63.53;98765.03;4873699;29;20052;-82
2023/10/12 03:39:43;;;;;;;5.80;1.45;;;;;;;15.39;64.10;98763.56;4877408;29;20047;-82
2023/10/12 03:45:24;;;;;;;4.78;1.60;;;;;;;14.99;65.88;98759.81;4874694;29;20052;-84
2023/10/12 03:48:24;;;;;;;7.50;1.95;;;;;;;15.10;65.32;98774.06;4877571;29;20048;-83
2023/10/12 03:54:11;;;;;;;8.35;2.15;;;;;;;15.03;64.74;98759.34;4877219;29;20040;-83
2023/10/12 03:57:19;;;;;;;4.75;1.38;;;;;;;15.09;64.32;98761.06;4875527;29;20105;-83
2023/10/12 04:02:56;;;;;;;8.05;1.70;;;;;;;15.18;64.53;98759.69;4878186;29;20056;-83
2023/10/12 04:06:04;;;;;;;9.48;1.70;;;;;;;15.15;64.37;98757.50;4878476;29;20056;-83
2023/10/12 04:08:51;;;;;;;6.75;1.83;;;;;;;15.20;63.84;98751.50;4875613;29;20068;-83
2023/10/12 04:11:49;;;;;;;7.32;1.80;;;;;;;15.18;64.06;98751.75;4875862;29;20044;-83
2023/10/12 04:20:17;;;;;;;12.52;1.85;;;;;;;15.19;64.27;98745.44;4875249;29;20102;-83
2023/10/12 04:23:13;;;;;;;6.13;1.70;;;;;;;15.13;64.18;98727.84;4877037;29;20095;-83
2023/10/12 04:26:09;;;;;;;7.10;1.70;;;;;;;15.17;64.47;98741.41;4877167;29;20190;-83
2023/10/12 04:28:56;;;;;;;8.48;1.38;;;;;;;15.09;64.58;98739.91;4874988;29;20124;-83
2023/10/12 04:34:35;;;;;;;5.95;1.50;;;;;;;15.19;64.67;98753.38;4876815;29;20113;-82
2023/10/12 04:37:25;;;;;;;4.93;1.63;;;;;;;15.16;64.70;98751.19;4875180;29;20067;-83
2023/10/12 04:40:39;;;;;;;8.40;1.52;;;;;;;15.07;65.25;98758.66;4876664;29;20183;-83
2023/10/12 04:43:23;;;;;;;7.78;2.40;;;;;;;15.01;65.11;98749.00;4873206;29;20048;-84
2023/10/12 04:49:30;;;;;;;6.57;1.60;;;;;;;14.95;65.10;98740.16;4874980;29;20503;-82
2023/10/12 04:57:41;;;;;;;11.32;2.45;;;;;;;15.16;64.31;98743.25;4877260;29;20177;-82
2023/10/12 05:00:34;;;;;;;5.80;1.67;;;;;;;15.05;63.94;98747.53;4874011;29;20056;-83
2023/10/12 05:03:26;;;;;;;5.93;1.60;;;;;;;15.25;63.86;98746.34;4876448;29;20506;-84
2023/10/12 05:06:15;;;;;;;10.32;1.88;;;;;;;15.20;63.88;98762.91;4875077;29;20044;-83
2023/10/12 05:09:04;;;;;;;6.85;1.77;;;;;;;15.28;63.73;98765.19;4877416;29;20051;-82
2023/10/12 05:11:48;;;;;;;6.97;2.22;;;;;;;15.32;63.93;98762.88;4875765;29;20120;-82
2023/10/12 05:14:33;;;;;;;12.65;2.85;;;;;;;15.08;64.11;98762.91;4871441;29;20100;-82
2023/10/12 05:17:17;;;;;;;7.22;2.08;;;;;;;15.16;63.93;98747.72;4876208;29;20063;-82
2023/10/12 05:20:01;;;;;;;13.15;2.53;;;;;;;15.22;63.54;98755.53;4877825;29;20044;-81
2023/10/12 05:22:45;;;;;;;9.30;2.47;;;;;;;15.12;63.85;98747.38;4874498;29;20136;-83
2023/10/12 05:25:38;;;;;;;5.90;1.92;;;;;;;15.27;63.71;98755.63;4875158;29;20055;-83
2023/10/12 05:28:27;;;;;;;8.35;1.73;;;;;;;15.27;63.41;98744.28;4880233;29;20383;-82
2023/10/12 05:31:13;;;;;;;9.45;2.20;;;;;;;15.42;63.26;98757.78;4877446;29;20104;-82
2023/10/12 05:34:26;;;;;;;3.40;1.50;;;;;;;15.49;63.18;98768.25;4878405;29;20548;-81
2023/10/12 05:40:01;;;;;;;6.25;1.85;;;;;;;15.14;65.16;98761.19;4877565;29;20048;-82
2023/10/12 05:42:50;;;;;;;7.05;2.03;;;;;;;15.17;65.21;98755.44;4875560;29;20096;-82
2023/10/12 05:45:34;;;;;;;8.38;2.00;;;;;;;15.09;64.49;98759.22;4874168;29;20132;-81
2023/10/12 05:48:19;;;;;;;14.95;1.80;;;;;;;15.19;64.56;98756.00;4874130;29;20177;-83
2023/10/12 05:51:04;;;;;;;9.10;1.80;;;;;;;15.11;64.68;98765.09;4876310;29;20065;-85
2023/10/12 05:53:48;;;;;;;8.80;1.90;;;;;;;15.12;64.56;98753.47;4876919;29;20059;-84
2023/10/12 05:56:34;;;;;;;11.75;2.45;;;;;;;15.15;64.49;98765.44;4876523;29;20062;-82
2023/10/12 05:59:19;;;;;;;9.30;1.88;;;;;;;14.94;64.48;98746.50;4876236;29;20060;-83
2023/10/12 06:02:04;;;;;;;8.65;1.75;;;;;;;15.16;64.46;98764.41;4881213;29;20052;-86
2023/10/12 06:04:48;;;;;;;6.65;2.25;;;;;;;15.13;64.42;98748.97;4875533;29;20116;-84
2023/10/12 06:07:32;;;;;;;5.07;1.70;;;;;;;15.12;64.63;98755.31;4870328;29;20411;-84
2023/10/12 06:10:16;;;;;;;6.30;2.10;;;;;;;14.93;64.65;98765.22;4873009;29;20072;-84
2023/10/12 06:13:05;;;;;;;8.60;2.00;;;;;;;14.97;64.72;98766.34;4877916;29;20110;-84
2023/10/12 06:15:53;;;;;;;6.38;1.85;;;;;;;14.93;64.59;98755.44;4879056;29;20068;-85
2023/10/12 06:18:37;;;;;;;6.90;2.00;;;;;;;15.02;64.56;98778.88;4879493;29;20055;-82
2023/10/12 06:21:23;;;;;;;7.22;1.95;;;;;;;15.02;64.52;98778.88;4882216;29;20060;-82
2023/10/12 06:24:11;;;;;;;7.40;1.85;;;;;;;15.02;64.64;98787.59;4879847;29;20044;-83
2023/10/12 06:26:55;;;;;;;6.55;2.13;;;;;;;14.89;64.93;98779.91;4879267;29;20079;-83
2023/10/12 06:29:39;;;;;;;11.02;2.40;;;;;;;14.85;65.07;98787.50;4877249;29;20113;-83
2023/10/12 06:32:33;;;;;;;8.27;2.10;;;;;;;14.94;64.40;98794.06;4875289;29;20089;-82
2023/10/12 06:38:22;;;;;;;11.93;2.17;;;;;;;15.09;64.81;98784.84;4878674;29;20058;-82
2023/10/12 06:47:28;;;;;;;7.50;2.03;;;;;;;15.27;64.38;98797.16;4872392;29;20052;-82
2023/10/12 06:50:15;;;;;;;8.77;2.35;;;;;;;15.08;64.88;98796.47;4872642;29;20047;-82
2023/10/12 06:53:06;;;;;;;6.50;2.05;;;;;;;15.03;64.64;98791.06;4873716;29;20117;-81
2023/10/12 06:55:59;;;;;;;12.32;2.15;;;;;;;15.12;64.37;98794.97;4879851;29;20073;-82
2023/10/12 06:59:07;;;;;;;5.83;1.70;;;;;;;15.08;64.66;98794.63;4880165;29;20048;-82
2023/10/12 07:01:53;;;;;;;6.38;2.10;;;;;;;14.92;64.74;98777.59;4873686;29;20056;-81
2023/10/12 07:04:38;;;;;;;9.18;2.70;;;;;;;15.02;64.69;98789.47;4874170;29;20128;-82
2023/10/12 07:07:41;;;;;;;9.90;2.10;;;;;;;15.16;64.47;98801.41;4878173;29;20088;-83
2023/10/12 07:10:28;;;;;;;8.20;2.00;;;;;;;15.05;64.71;98812.78;4876701;29;20108;-81
2023/10/12 07:13:12;;;;;;;5.43;1.90;;;;;;;14.97;64.58;98809.47;4870165;29;20120;-83
2023/10/12 07:15:57;;;;;;;11.63;2.53;;;;;;;14.90;64.92;98806.09;4873050;29;20048;-82
2023/10/12 07:18:43;;;;;;;11.55;2.25;;;;;;;15.18;64.04;98824.97;4872806;29;20051;-81
2023/10/12 07:21:27;;;;;;;5.82;1.80;;;;;;;15.10;64.26;98826.09;4869334;29;20052;-81
2023/10/12 07:24:13;;;;;;;7.00;1.95;;;;;;;15.05;64.82;98828.63;4866828;29;20047;-82
2023/10/12 07:27:09;;;;;;;4.38;2.15;;;;;;;15.03;65.46;98822.78;4870344;29;20065;-82
2023/10/12 07:30:21;;;;;;;8.43;2.58;;;;;;;15.03;65.90;98814.84;4869328;29;20051;-80
2023/10/12 07:33:07;;;;;;;9.88;1.92;;;;;;;15.27;65.13;98807.72;4871827;29;20084;-80
2023/10/12 07:35:53;;;;;;;6.53;2.70;;;;;;;15.30;65.04;98811.75;4878914;29;20555;-83
2023/10/12 07:38:37;;;;;;;4.40;1.95;;;;;;;15.10;65.15;98828.75;4876943;29;20075;-85
2023/10/12 07:41:33;;;;;;;7.97;2.25;;;;;;;14.94;65.66;98809.91;4877950;29;20521;-84
2023/10/12 07:44:17;;;;;;;9.20;2.55;;;;;;;14.75;66.71;98785.41;4879265;29;20101;-83
2023/10/12 07:47:03;;;;;;;12.75;3.30;;;;;;;15.03;65.93;98812.22;4878281;29;20430;-85
2023/10/12 07:49:51;;;;;;;8.20;2.42;;;;;;;15.13;64.84;98812.44;4874742;29;20133;-84
2023/10/12 07:55:29;;;;;;;7.43;2.83;;;;;;;15.15;65.87;98813.03;4875138;29;20044;-84
2023/10/12 07:58:18;;;;;;;11.32;3.75;;;;;;;15.34;66.02;98813.69;4879247;29;20101;-84
2023/10/12 08:04:29;;;;;;;11.35;2.92;;;;;;;15.37;65.66;98813.22;4883747;29;20048;-86
2023/10/12 08:07:13;;;;;;;10.13;3.20;;;;;;;15.45;65.76;98813.94;4876225;29;20148;-84
2023/10/12 08:10:13;;;;;;;16.13;3.80;;;;;;;15.49;66.33;98821.16;4869957;29;20123;-85
2023/10/12 08:13:04;;;;;;;9.90;3.33;;;;;;;15.45;66.34;98795.41;4867286;29;20048;-85
2023/10/12 08:21:39;;;;;;;11.25;4.40;;;;;;;15.65;65.19;98797.66;4874489;29;20162;-85
2023/10/12 08:24:23;;;;;;;10.18;3.78;;;;;;;15.80;64.84;98813.84;4874423;29;20056;-85
2023/10/12 08:27:08;;;;;;;8.25;4.22;;;;;;;15.84;64.74;98820.28;4873337;29;20140;-84
2023/10/12 08:32:36;;;;;;;17.70;4.47;;;;;;;16.00;63.90;98812.66;4878383;29;20402;-84
2023/10/12 08:35:37;;;;;;;16.73;7.07;;;;;;;15.98;63.82;98807.59;4874733;29;20053;-86
2023/10/12 08:38:33;;;;;;;17.52;5.50;;;;;;;16.04;63.26;98789.19;4873069;29;20064;-85
2023/10/12 08:44:02;;;;;;;21.13;6.50;;;;;;;16.18;61.89;98822.25;4876933;29;20052;-82
2023/10/12 08:47:08;;;;;;;15.93;4.95;;;;;;;16.28;62.95;98811.06;4876159;29;20548;-85
2023/10/12 08:49:53;;;;;;;14.13;6.15;;;;;;;16.38;63.30;98826.31;4873347;29;20097;-81
2023/10/12 08:52:38;;;;;;;16.08;6.60;;;;;;;16.46;63.88;98820.66;4875697;29;20039;-82
2023/10/12 08:55:31;;;;;;;13.80;5.82;;;;;;;16.47;63.60;98816.16;4876379;29;20060;-81
2023/10/12 08:58:38;;;;;;;16.98;6.40;;;;;;;16.53;63.59;98839.06;4875091;29;20112;-82
2023/10/12 09:01:31;;;;;;;15.35;5.82;;;;;;;16.47;63.47;98803.72;4876463;29;20096;-84
2023/10/12 09:04:16;;;;;;;17.17;5.90;;;;;;;16.80;63.51;98818.03;4875474;29;20056;-82
2023/10/12 09:07:03;;;;;;;20.95;6.45;;;;;;;16.68;63.56;98794.25;4875966;29;20173;-82
2023/10/12 09:09:55;;;;;;;18.63;7.18;;;;;;;16.76;63.08;98808.16;4875944;29;20089;-82
2023/10/12 09:12:40;;;;;;;14.93;6.25;;;;;;;16.71;63.37;98787.66;4872932;29;20109;-82
2023/10/12 09:15:38;;;;;;;13.90;5.60;;;;;;;17.22;63.29;98822.13;4877193;29;20132;-82
2023/10/12 09:18:49;;;;;;;13.10;4.70;;;;;;;17.67;62.74;98814.22;4875837;29;20464;-82
2023/10/12 09:21:39;;;;;;;20.63;4.82;;;;;;;17.70;61.42;98824.34;4875725;29;20102;-82
2023/10/12 09:24:28;;;;;;;13.70;4.53;;;;;;;17.82;61.52;98810.97;4874195;29;20052;-82
2023/10/12 09:27:13;;;;;;;17.05;6.30;;;;;;;18.03;61.46;98821.84;4875338;29;20043;-82
2023/10/12 09:30:01;;;;;;;17.98;5.60;;;;;;;18.49;61.64;98824.94;4875051;29;20076;-83
2023/10/12 09:33:06;;;;;;;12.25;4.55;;;;;;;18.88;60.25;98813.31;4874206;29;20048;-82
2023/10/12 09:35:52;;;;;;;17.55;6.72;;;;;;;18.92;59.66;98806.41;4873895;29;20554;-83
2023/10/12 09:38:38;;;;;;;17.65;5.10;;;;;;;19.27;59.90;98821.03;4877100;29;20044;-83
2023/10/12 09:41:28;;;;;;;14.48;5.13;;;;;;;19.76;59.42;98826.34;4874429;29;20120;-82
2023/10/12 09:44:13;;;;;;;14.27;5.45;;;;;;;20.25;58.71;98809.19;4875676;29;20044;-82
2023/10/12 09:46:57;;;;;;;11.80;4.60;;;;;;;20.47;59.02;98826.81;4874889;29;20404;-81
2023/10/12 09:49:55;;;;;;;18.77;5.40;;;;;;;20.52;57.54;98838.25;4876211;29;20044;-81
2023/10/12 09:52:57;;;;;;;14.75;5.05;;;;;;;20.36;58.01;98839.31;4875731;29;20163;-81
2023/10/12 09:55:54;;;;;;;11.05;3.67;;;;;;;20.50;56.97;98839.59;4873049;29;20052;-82
2023/10/12 09:59:29;;;;;;;13.48;4.20;;;;;;;20.59;57.45;98827.31;4875691;29;20059;-81
2023/10/12 10:01:50;;;;;;;9.65;3.70;;;;;;;20.70;58.07;98822.78;4876283;29;20048;-83
2023/10/12 10:04:35;;;;;;;10.70;4.10;;;;;;;20.96;57.71;98828.16;4872957;29;20097;-82
2023/10/12 10:07:27;;;;;;;8.63;3.78;;;;;;;21.01;56.57;98819.34;4874747;29;20051;-81
2023/10/12 10:10:30;;;;;;;12.55;4.55;;;;;;;21.07;56.26;98827.06;4875846;29;20083;-82
2023/10/12 10:13:39;;;;;;;12.13;4.20;;;;;;;20.85;56.49;98811.38;4877270;29;20502;-82
2023/10/12 10:16:23;;;;;;;16.25;4.97;;;;;;;20.82;57.23;98823.38;4875829;29;20043;-82
2023/10/12 10:19:16;;;;;;;17.92;4.93;;;;;;;20.83;56.18;98835.63;4878660;29;20044;-82
2023/10/12 10:22:04;;;;;;;7.63;3.25;;;;;;;21.25;55.83;98832.91;4879689;29;20088;-83
2023/10/12 10:24:57;;;;;;;9.85;3.28;;;;;;;21.45;55.39;98832.06;4877254;29;20101;-81
2023/10/12 10:27:41;;;;;;;18.50;4.85;;;;;;;21.01;56.08;98817.47;4880696;29;20048;-81
2023/10/12 10:30:27;;;;;;;11.68;3.55;;;;;;;21.26;56.38;98838.00;4877470;29;20056;-82
2023/10/12 10:33:13;;;;;;;12.32;3.67;;;;;;;21.60;56.73;98819.72;4878990;29;20044;-82
2023/10/12 10:36:00;;;;;;;17.65;4.25;;;;;;;21.81;56.20;98815.94;4880126;29;20092;-81
2023/10/12 10:38:53;;;;;;;9.80;4.30;;;;;;;22.35;55.19;98832.19;4879125;29;20056;-81
2023/10/12 10:41:46;;;;;;;13.82;5.22;;;;;;;22.43;55.25;98816.66;4878669;29;20522;-83
2023/10/12 10:44:37;;;;;;;11.03;3.40;;;;;;;22.77;54.08;98821.22;4877823;29;20068;-81
2023/10/12 10:47:21;;;;;;;8.45;3.20;;;;;;;23.12;52.64;98813.94;4878506;29;20059;-82
2023/10/12 10:50:15;;;;;;;12.75;4.30;;;;;;;22.85;53.31;98811.78;4879423;29;20833;-82
2023/10/12 10:53:08;;;;;;;8.43;3.58;;;;;;;22.95;53.13;98803.66;4878921;29;20031;-82
2023/10/12 10:55:52;;;;;;;14.23;4.23;;;;;;;23.04;53.88;98811.88;4875446;29;20177;-82
2023/10/12 10:58:37;;;;;;;12.13;3.30;;;;;;;23.10;53.60;98800.84;4875964;29;20181;-83
2023/10/12 11:01:21;;;;;;;11.13;3.92;;;;;;;23.36;52.69;98800.59;4879164;29;20468;-83
2023/10/12 11:04:09;;;;;;;11.90;3.70;;;;;;;23.24;53.31;98794.78;4879393;29;20108;-82
2023/10/12 11:06:53;;;;;;;12.32;4.05;;;;;;;23.36;54.04;98783.72;4878878;29;20059;-84
2023/10/12 11:12:38;;;;;;;16.48;6.85;;;;;;;23.21;53.87;98780.13;4878266;29;20044;-83
2023/10/12 11:15:24;;;;;;;14.73;4.32;;;;;;;23.42;53.47;98779.91;4879193;29;20464;-82
2023/10/12 11:18:17;;;;;;;10.93;2.88;;;;;;;23.41;51.96;98782.88;4878865;29;20039;-83
2023/10/12 11:21:04;;;;;;;11.57;4.28;;;;;;;23.52;53.27;98773.63;4878042;29;20075;-81
2023/10/12 11:23:51;;;;;;;9.43;3.17;;;;;;;23.59;53.84;98784.00;4877055;29;20081;-82
2023/10/12 11:26:52;;;;;;;10.55;3.03;;;;;;;23.45;53.25;98782.00;4877289;29;20181;-82
2023/10/12 11:29:51;;;;;;;12.05;4.10;;;;;;;23.05;54.35;98773.31;4877447;29;20117;-84
2023/10/12 11:32:55;;;;;;;9.30;3.42;;;;;;;23.35;53.27;98768.72;4876289;29;20120;-81
2023/10/12 11:35:41;;;;;;;11.02;3.67;;;;;;;23.28;52.45;98760.25;4873001;29;20132;-81
2023/10/12 11:38:27;;;;;;;8.60;3.25;;;;;;;23.41;54.29;98767.59;4873879;29;20139;-83
2023/10/12 11:41:13;;;;;;;7.95;3.33;;;;;;;24.04;52.97;98752.31;4876305;29;20524;-84
2023/10/12 11:44:07;;;;;;;13.98;3.55;;;;;;;23.61;52.62;98747.78;4877674;29;20604;-82
2023/10/12 11:46:54;;;;;;;16.88;3.22;;;;;;;23.72;52.79;98748.44;4873830;29;20122;-82
2023/10/12 11:49:55;;;;;;;9.48;3.92;;;;;;;23.73;52.78;98755.38;4876458;29;20097;-83
2023/10/12 11:52:40;;;;;;;9.55;3.78;;;;;;;24.09;52.81;98743.41;4877250;29;20807;-82
2023/10/12 11:55:31;;;;;;;4.18;2.30;;;;;;;24.55;49.39;98741.84;4877920;29;20047;-82
2023/10/12 11:58:19;;;;;;;9.05;2.63;;;;;;;24.68;49.03;98749.13;4877338;29;20047;-82
2023/10/12 12:01:03;;;;;;;6.72;2.55;;;;;;;24.75;48.40;98750.63;4875456;29;20056;-83
2023/10/12 12:03:53;;;;;;;6.85;2.40;;;;;;;24.56;49.23;98734.59;4876346;29;20044;-83
2023/10/12 12:06:38;;;;;;;7.75;2.80;;;;;;;24.21;50.21;98737.59;4878084;29;20433;-82
2023/10/12 12:09:23;;;;;;;6.40;2.40;;;;;;;24.64;49.64;98732.03;4876578;29;20052;-82
2023/10/12 12:12:12;;;;;;;7.40;2.20;;;;;;;24.52;48.62;98726.34;4876988;29;20044;-82
2023/10/12 12:14:56;;;;;;;7.00;2.95;;;;;;;24.33;50.63;98735.22;4875056;29;20044;-82
2023/10/12 12:17:40;;;;;;;6.20;2.92;;;;;;;24.67;50.71;98730.66;4877855;29;20137;-82
2023/10/12 12:20:25;;;;;;;9.95;2.80;;;;;;;24.79;49.83;98730.19;4876599;29;20137;-82
2023/10/12 12:23:12;;;;;;;5.28;2.55;;;;;;;24.87;49.30;98723.34;4877022;29;20055;-81
2023/10/12 12:26:04;;;;;;;8.15;3.53;;;;;;;24.77;49.82;98727.03;4874756;29;20407;-82
2023/10/12 12:28:50;;;;;;;4.20;2.10;;;;;;;24.53;48.59;98728.72;4877249;29;20399;-81
2023/10/12 12:31:36;;;;;;;10.07;2.83;;;;;;;24.30;49.30;98717.03;4869669;29;20100;-81
2023/10/12 12:34:38;;;;;;;9.48;2.70;;;;;;;24.15;49.40;98731.50;4877117;29;20106;-84
2023/10/12 12:37:22;;;;;;;7.40;2.85;;;;;;;24.44;49.31;98732.38;4877391;29;20048;-82
2023/10/12 12:43:10;;;;;;;8.77;3.00;;;;;;;24.32;50.62;98714.09;4876804;29;20495;-83
2023/10/12 12:45:54;;;;;;;10.38;2.97;;;;;;;24.73;50.42;98724.09;4874803;29;20121;-84
2023/10/12 12:48:38;;;;;;;9.27;3.25;;;;;;;24.72;49.72;98714.47;4875302;29;20044;-82
2023/10/12 12:51:22;;;;;;;13.25;3.70;;;;;;;24.72;49.44;98710.97;4876701;29;20048;-81
2023/10/12 12:54:07;;;;;;;6.00;2.85;;;;;;;24.87;50.18;98717.97;4872566;29;20062;-82
2023/10/12 12:56:53;;;;;;;10.75;3.17;;;;;;;24.63;50.03;98708.97;4874271;29;20059;-84
2023/10/12 12:59:38;;;;;;;10.23;3.15;;;;;;;24.81;52.00;98710.00;4876318;29;20402;-83
2023/10/12 13:02:22;;;;;;;8.60;3.40;;;;;;;24.88;49.57;98708.84;4876291;29;20604;-85
2023/10/12 13:05:07;;;;;;;7.88;3.35;;;;;;;25.06;50.52;98720.56;4877128;29;20043;-82
2023/10/12 13:07:52;;;;;;;7.13;3.00;;;;;;;24.63;49.95;98718.91;4870569;29;20113;-81
2023/10/12 13:10:36;;;;;;;5.45;2.83;;;;;;;24.88;50.74;98714.19;4877328;29;20414;-81
2023/10/12 13:13:20;;;;;;;8.52;3.30;;;;;;;24.83;50.51;98712.41;4875858;29;20048;-81
2023/10/12 13:16:05;;;;;;;8.60;2.95;;;;;;;25.21;50.69;98706.81;4877163;29;20518;-81
2023/10/12 13:18:49;;;;;;;12.20;4.03;;;;;;;25.07;49.56;98708.72;4875618;29;20102;-82
2023/10/12 13:21:33;;;;;;;9.02;3.22;;;;;;;24.93;51.04;98700.69;4875919;29;20043;-81
2023/10/12 13:24:18;;;;;;;11.85;3.83;;;;;;;25.28;51.34;98705.63;4876498;29;20109;-83
2023/10/12 13:27:16;;;;;;;8.48;3.40;;;;;;;25.17;51.67;98684.34;4875364;29;20130;-81
2023/10/12 13:30:09;;;;;;;8.57;3.20;;;;;;;25.12;50.10;98687.13;4876867;29;20080;-81
2023/10/12 13:32:59;;;;;;;9.13;3.72;;;;;;;25.15;50.19;98683.06;4869650;29;20044;-82
2023/10/12 13:35:46;;;;;;;15.88;3.63;;;;;;;25.03;50.71;98670.16;4873613;29;20510;-82
2023/10/12 13:38:33;;;;;;;7.28;3.20;;;;;;;24.99;50.71;98679.91;4874858;29;20092;-82
2023/10/12 13:41:20;;;;;;;10.55;3.08;;;;;;;24.77;51.45;98676.81;4875576;29;20083;-82
2023/10/12 13:44:07;;;;;;;8.85;3.30;;;;;;;24.72;51.01;98673.38;4875630;29;20523;-82
2023/10/12 13:46:52;;;;;;;6.90;2.90;;;;;;;24.85;51.35;98674.50;4875895;29;20040;-82
2023/10/12 13:49:37;;;;;;;9.90;3.17;;;;;;;24.84;50.96;98671.03;4876931;29;20040;-81
2023/10/12 13:52:21;;;;;;;14.45;4.32;;;;;;;23.71;51.73;98663.78;4878277;29;20044;-83
2023/10/12 13:55:11;;;;;;;7.78;2.83;;;;;;;23.32;51.86;98664.88;4872158;29;20105;-82
2023/10/12 13:57:55;;;;;;;13.20;3.45;;;;;;;23.11;53.59;98665.09;4873675;29;20101;-81
2023/10/12 14:00:39;;;;;;;11.10;3.60;;;;;;;22.79;54.20;98677.25;4879118;29;20548;-81
2023/10/12 14:03:29;;;;;;;9.80;3.25;;;;;;;22.67;54.93;98680.31;4871761;29;20140;-82
2023/10/12 14:06:13;;;;;;;11.50;3.22;;;;;;;22.82;54.00;98655.28;4871610;29;20048;-83
2023/10/12 14:08:58;;;;;;;9.63;3.58;;;;;;;22.92;54.07;98655.16;4879612;29;20052;-83
2023/10/12 14:11:47;;;;;;;8.38;2.90;;;;;;;22.82;53.89;98664.09;4879591;29;20095;-82
2023/10/12 14:14:31;;;;;;;8.32;3.13;;;;;;;22.79;53.81;98655.84;4879686;29;20124;-83
2023/10/12 14:17:15;;;;;;;9.98;2.72;;;;;;;22.82;54.30;98666.00;4879439;29;20125;-84
2023/10/12 14:20:01;;;;;;;8.05;3.10;;;;;;;22.92;55.24;98659.72;4877079;29;20124;-84
2023/10/12 14:22:45;;;;;;;7.85;2.92;;;;;;;22.54;55.03;98657.72;4877611;29;20051;-82